Time;durP1;ratioP1;P1;durP2;ratioP2;P2;SDS_P1;SDS_P2;PMS_P1;PMS_P2;Temp;Humidity;BMP_temperature;BMP_pressure;BME280_temperature;BME280_humidity;BME280_pressure;Samples;Min_cycle;Max_cycle;Signal;HPM_P1;HPM_P2
2022/06/13 04:43:13;;;;;;;12.60;4.45;;;;;;;;;;5028150;28;20909;-84
2022/06/13 04:45:53;;;;;;;10.48;3.58;;;;;;;;;;5035014;28;20133;-84
2022/06/13 04:48:27;;;;;;;12.75;3.58;;;;;;;;;;5052794;28;20103;-83
2022/06/13 04:51:00;;;;;;;17.20;4.18;;;;;;;;;;5035096;28;20131;-83
2022/06/13 04:53:44;;;;;;;13.32;3.92;;;;;;;;;;5037958;28;20932;-85
2022/06/13 04:58:12;;;;;;;14.50;3.67;;;;;;;;;;4951092;28;20047;-86
2022/06/13 05:01:11;;;;;;;11.98;3.85;;;;;;;;;;4975966;28;20065;-85
2022/06/13 05:04:04;;;;;;;12.50;3.75;;;;;;;;;;5008623;28;20054;-86
2022/06/13 05:08:02;;;;;;;11.07;3.88;;;;;;;;;;5018209;28;20045;-86
2022/06/13 05:11:36;;;;;;;11.77;3.40;;;;;;;;;;4948194;28;20055;-86
2022/06/13 05:14:15;;;;;;;12.10;3.90;;;;;;;;;;4946389;28;20157;-84
2022/06/13 05:17:15;;;;;;;13.38;3.70;;;;;;;;;;4942044;28;20153;-84
2022/06/13 05:19:53;;;;;;;11.95;3.70;;;;;;;;;;4943550;28;20083;-83
2022/06/13 05:22:25;;;;;;;11.10;3.95;;;;;;;;;;4946021;28;20062;-83
2022/06/13 05:24:59;;;;;;;13.32;3.55;;;;;;;;;;4929822;29;20062;-83
2022/06/13 05:27:27;;;;;;;11.27;3.83;;;;;;;;;;4965382;28;20148;-83
2022/06/13 05:29:55;;;;;;;15.02;3.42;;;;;;;;;;4970872;28;21016;-83
2022/06/13 05:32:23;;;;;;;10.60;3.70;;;;;;;;;;4967957;28;20358;-85
2022/06/13 05:34:57;;;;;;;12.82;4.18;;;;;;;;;;4984902;28;20051;-84
2022/06/13 05:37:25;;;;;;;13.38;4.13;;;;;;;;;;4985210;28;20054;-81
2022/06/13 05:39:53;;;;;;;8.52;3.80;;;;;;;;;;4969228;28;20069;-82
2022/06/13 05:42:31;;;;;;;15.20;3.80;;;;;;;;;;5015757;28;20053;-83
2022/06/13 05:45:03;;;;;;;9.98;4.00;;;;;;;;;;4997902;28;20479;-83
2022/06/13 05:47:31;;;;;;;14.10;4.55;;;;;;;;;;5001880;28;20136;-84
2022/06/13 05:49:59;;;;;;;8.80;3.83;;;;;;;;;;5034770;28;20115;-83
2022/06/13 05:52:27;;;;;;;10.48;3.95;;;;;;;;;;5036109;28;20816;-83
2022/06/13 05:55:21;;;;;;;13.55;4.10;;;;;;;;;;5032861;28;20061;-84
2022/06/13 05:58:03;;;;;;;13.50;3.90;;;;;;;;;;5016586;28;20131;-83
2022/06/13 06:00:42;;;;;;;16.10;4.10;;;;;;;;;;5019132;28;20497;-85
2022/06/13 06:04:14;;;;;;;15.35;3.53;;;;;;;;;;5033627;28;20080;-83
2022/06/13 06:06:57;;;;;;;10.68;3.58;;;;;;;;;;5018924;28;20430;-84
2022/06/13 06:09:51;;;;;;;12.40;3.65;;;;;;;;;;5034409;28;20411;-85
2022/06/13 06:12:19;;;;;;;13.15;3.97;;;;;;;;;;5017686;28;20044;-85
2022/06/13 06:15:32;;;;;;;10.48;3.20;;;;;;;;;;5036255;28;20049;-84
2022/06/13 06:18:03;;;;;;;15.32;4.00;;;;;;;;;;4989626;28;20053;-84
2022/06/13 06:20:31;;;;;;;7.70;3.03;;;;;;;;;;5018383;28;20506;-84
2022/06/13 06:23:14;;;;;;;7.22;3.10;;;;;;;;;;5018614;28;20514;-84
2022/06/13 06:26:16;;;;;;;10.15;3.13;;;;;;;;;;5024730;28;20866;-84
2022/06/13 06:29:32;;;;;;;11.38;3.88;;;;;;;;;;5006042;28;20054;-84
2022/06/13 06:33:39;;;;;;;9.57;2.80;;;;;;;;;;5023443;28;21607;-84
2022/06/13 06:38:13;;;;;;;13.10;3.00;;;;;;;;;;4974986;28;20173;-84
2022/06/13 06:42:04;;;;;;;9.68;3.08;;;;;;;;;;4975042;28;20109;-81
2022/06/13 06:44:31;;;;;;;7.47;2.70;;;;;;;;;;5007788;28;20109;-81
2022/06/13 06:47:07;;;;;;;11.95;2.80;;;;;;;;;;5005113;28;20061;-81
2022/06/13 06:49:37;;;;;;;11.20;2.65;;;;;;;;;;5008166;28;20053;-81
2022/06/13 06:52:05;;;;;;;15.30;3.33;;;;;;;;;;4993557;28;20070;-81
2022/06/13 07:00:33;;;;;;;11.43;2.60;;;;;;;;;;4994454;28;20106;-81
2022/06/13 07:03:25;;;;;;;8.27;2.33;;;;;;;;;;4995036;28;20050;-81
2022/06/13 07:05:59;;;;;;;7.65;2.30;;;;;;;;;;4993482;28;20479;-81
2022/06/13 07:08:53;;;;;;;12.55;2.50;;;;;;;;;;5052434;28;20055;-81
2022/06/13 07:14:34;;;;;;;8.48;2.15;;;;;;;;;;5050367;28;20044;-81
2022/06/13 07:17:03;;;;;;;9.25;2.20;;;;;;;;;;5044794;28;20107;-81
2022/06/13 07:19:33;;;;;;;8.05;1.73;;;;;;;;;;5048056;28;20123;-81
2022/06/13 07:22:07;;;;;;;8.32;2.05;;;;;;;;;;5051279;28;20061;-80
2022/06/13 07:25:01;;;;;;;11.00;2.20;;;;;;;;;;5034891;28;20048;-80
2022/06/13 07:27:30;;;;;;;8.68;2.20;;;;;;;;;;5048554;28;20048;-80
2022/06/13 07:29:59;;;;;;;5.80;1.73;;;;;;;;;;5045029;28;20065;-81
2022/06/13 07:32:27;;;;;;;9.73;2.10;;;;;;;;;;5044526;28;20049;-81
2022/06/13 07:34:55;;;;;;;8.80;2.00;;;;;;;;;;5064758;28;20047;-81
2022/06/13 07:40:12;;;;;;;8.90;2.55;;;;;;;;;;5031304;28;20056;-81
2022/06/13 07:42:43;;;;;;;9.20;2.25;;;;;;;;;;5045924;28;20087;-80
2022/06/13 07:45:14;;;;;;;6.80;2.05;;;;;;;;;;5061590;28;20050;-81
2022/06/13 07:48:02;;;;;;;5.38;1.85;;;;;;;;;;5061661;28;20052;-81
2022/06/13 07:50:29;;;;;;;4.95;1.20;;;;;;;;;;5062231;28;20048;-81
2022/06/13 07:52:57;;;;;;;7.32;1.40;;;;;;;;;;5047147;28;20056;-81
2022/06/13 07:55:27;;;;;;;7.10;1.35;;;;;;;;;;5049210;28;20108;-81
2022/06/13 07:58:03;;;;;;;5.63;1.40;;;;;;;;;;5025689;28;20053;-84
2022/06/13 08:00:34;;;;;;;4.60;1.30;;;;;;;;;;5031144;28;20087;-84
2022/06/13 08:03:29;;;;;;;3.13;1.27;;;;;;;;;;5048031;28;20055;-85
2022/06/13 08:05:58;;;;;;;6.13;1.25;;;;;;;;;;5047641;28;20041;-85
2022/06/13 08:08:35;;;;;;;5.35;1.30;;;;;;;;;;5049085;28;20081;-85
2022/06/13 08:11:06;;;;;;;4.25;1.40;;;;;;;;;;5047357;28;20075;-84
2022/06/13 08:13:39;;;;;;;7.18;1.50;;;;;;;;;;5032992;28;20072;-85
2022/06/13 08:16:09;;;;;;;5.13;1.38;;;;;;;;;;5048364;28;20044;-85
2022/06/13 08:18:38;;;;;;;4.38;1.33;;;;;;;;;;5034506;28;20134;-84
2022/06/13 08:21:06;;;;;;;5.03;1.20;;;;;;;;;;5030861;28;20059;-85
2022/06/13 08:23:34;;;;;;;4.03;1.25;;;;;;;;;;5046968;28;20052;-85
2022/06/13 08:26:09;;;;;;;6.75;1.98;;;;;;;;;;5016854;28;20037;-84
2022/06/13 08:29:04;;;;;;;6.15;1.40;;;;;;;;;;5048500;28;20056;-85
2022/06/13 08:31:37;;;;;;;5.95;1.40;;;;;;;;;;5049612;28;20053;-85
2022/06/13 08:34:45;;;;;;;4.80;1.38;;;;;;;;;;5050498;28;20053;-83
2022/06/13 08:38:07;;;;;;;4.72;1.30;;;;;;;;;;5049005;28;20083;-83
2022/06/13 08:41:13;;;;;;;3.83;1.50;;;;;;;;;;5032961;28;20064;-83
2022/06/13 08:44:47;;;;;;;5.15;1.40;;;;;;;;;;5042590;28;20057;-84
2022/06/13 08:47:29;;;;;;;5.97;1.52;;;;;;;;;;5053363;28;20152;-84
2022/06/13 08:50:44;;;;;;;4.78;1.65;;;;;;;;;;5041235;28;20048;-84
2022/06/13 08:53:56;;;;;;;3.15;1.30;;;;;;;;;;5055271;28;20374;-84
2022/06/13 08:56:27;;;;;;;6.10;1.10;;;;;;;;;;5038277;28;20059;-84
2022/06/13 08:59:24;;;;;;;5.43;1.42;;;;;;;;;;5054107;28;20044;-83
2022/06/13 09:02:11;;;;;;;3.78;1.33;;;;;;;;;;5055270;28;20053;-83
2022/06/13 09:05:27;;;;;;;4.20;1.50;;;;;;;;;;5058330;28;20051;-83
2022/06/13 09:08:44;;;;;;;4.75;1.40;;;;;;;;;;5049966;28;20049;-83
2022/06/13 09:11:23;;;;;;;4.05;1.67;;;;;;;;;;5053418;28;20084;-83
2022/06/13 09:14:29;;;;;;;6.70;2.15;;;;;;;;;;5051399;28;20059;-83
2022/06/13 09:17:17;;;;;;;4.70;1.42;;;;;;;;;;4972669;28;20050;-84
2022/06/13 09:20:02;;;;;;;2.03;1.20;;;;;;;;;;4992539;28;20536;-84
2022/06/13 09:22:50;;;;;;;3.30;1.10;;;;;;;;;;4971053;28;20137;-84
2022/06/13 09:25:46;;;;;;;3.33;1.17;;;;;;;;;;4992619;28;20054;-84
2022/06/13 09:28:31;;;;;;;3.25;1.20;;;;;;;;;;4966350;28;20219;-84
2022/06/13 09:31:13;;;;;;;4.55;1.48;;;;;;;;;;4972678;28;20053;-84
2022/06/13 09:33:51;;;;;;;3.63;1.27;;;;;;;;;;4975302;28;20058;-84
2022/06/13 09:36:34;;;;;;;2.35;1.13;;;;;;;;;;4971688;28;20054;-84
2022/06/13 09:39:08;;;;;;;2.10;0.77;;;;;;;;;;4973527;28;20058;-84
2022/06/13 09:42:14;;;;;;;1.50;0.82;;;;;;;;;;4972270;28;20051;-84
2022/06/13 09:45:07;;;;;;;2.65;0.88;;;;;;;;;;4974954;28;20051;-83
2022/06/13 09:47:56;;;;;;;3.90;0.95;;;;;;;;;;4968000;28;20595;-84
2022/06/13 09:50:48;;;;;;;1.48;0.80;;;;;;;;;;4975794;28;20054;-84
2022/06/13 09:53:38;;;;;;;1.95;0.85;;;;;;;;;;5018696;28;20057;-84
2022/06/13 09:56:32;;;;;;;0.88;0.60;;;;;;;;;;5037480;28;20179;-84
2022/06/13 09:59:26;;;;;;;1.90;0.98;;;;;;;;;;5050949;28;20048;-84
2022/06/13 10:05:26;;;;;;;2.97;0.70;;;;;;;;;;5022299;28;20063;-84
2022/06/13 10:08:13;;;;;;;1.10;0.63;;;;;;;;;;5051822;28;20044;-84
2022/06/13 10:11:30;;;;;;;0.85;0.55;;;;;;;;;;5051135;28;20044;-84
2022/06/13 10:14:30;;;;;;;1.98;0.70;;;;;;;;;;5051961;28;20056;-84
2022/06/13 10:17:31;;;;;;;2.45;0.90;;;;;;;;;;5046741;28;21682;-85
2022/06/13 10:20:18;;;;;;;2.60;0.85;;;;;;;;;;5054771;28;20053;-84
2022/06/13 10:23:00;;;;;;;1.80;0.82;;;;;;;;;;5049498;28;20397;-84
2022/06/13 10:25:46;;;;;;;1.83;0.70;;;;;;;;;;5048312;28;20469;-83
2022/06/13 10:28:23;;;;;;;2.00;1.27;;;;;;;;;;5033548;28;20049;-84
2022/06/13 10:30:54;;;;;;;2.05;0.68;;;;;;;;;;5052679;28;20048;-84
2022/06/13 10:33:48;;;;;;;3.45;0.90;;;;;;;;;;5053586;28;20090;-85
2022/06/13 10:37:39;;;;;;;1.42;0.93;;;;;;;;;;5050855;28;20080;-85
2022/06/13 10:40:53;;;;;;;1.27;0.52;;;;;;;;;;4990862;28;20096;-84
2022/06/13 10:43:21;;;;;;;1.42;0.60;;;;;;;;;;4972338;28;20547;-85
2022/06/13 10:45:49;;;;;;;4.82;0.75;;;;;;;;;;4973403;28;20061;-84
2022/06/13 10:48:26;;;;;;;1.70;0.55;;;;;;;;;;4961945;28;20054;-84
2022/06/13 10:51:01;;;;;;;1.17;0.45;;;;;;;;;;4990476;28;20990;-84
2022/06/13 10:53:35;;;;;;;3.80;0.60;;;;;;;;;;4974069;28;20526;-83
2022/06/13 10:56:22;;;;;;;3.28;0.90;;;;;;;;;;4957866;28;20046;-84
2022/06/13 10:58:52;;;;;;;1.85;0.77;;;;;;;;;;4989699;28;20049;-83
2022/06/13 11:01:23;;;;;;;3.65;0.60;;;;;;;;;;4985729;28;20128;-84
2022/06/13 11:04:06;;;;;;;3.47;0.75;;;;;;;;;;4988387;28;20050;-84
2022/06/13 11:06:50;;;;;;;2.17;0.60;;;;;;;;;;4989498;28;20133;-85
2022/06/13 11:09:28;;;;;;;1.90;0.50;;;;;;;;;;4958081;28;20523;-84
2022/06/13 11:12:00;;;;;;;1.25;0.60;;;;;;;;;;5028320;28;20053;-84
2022/06/13 11:14:27;;;;;;;1.40;0.40;;;;;;;;;;5051259;28;20055;-84
2022/06/13 11:23:11;;;;;;;1.75;0.50;;;;;;;;;;5034159;28;20053;-84
2022/06/13 11:25:39;;;;;;;1.92;0.57;;;;;;;;;;5015398;28;20052;-85
2022/06/13 11:28:11;;;;;;;2.72;0.90;;;;;;;;;;5049883;28;20049;-83
2022/06/13 11:30:49;;;;;;;2.63;0.65;;;;;;;;;;5047857;28;20049;-84
2022/06/13 11:33:23;;;;;;;3.85;0.60;;;;;;;;;;5048105;28;20191;-84
2022/06/13 11:36:16;;;;;;;1.98;0.60;;;;;;;;;;5049479;28;20138;-84
2022/06/13 11:39:03;;;;;;;2.17;0.68;;;;;;;;;;5052072;28;20064;-84
2022/06/13 11:41:46;;;;;;;1.30;0.50;;;;;;;;;;5050045;28;20057;-84
2022/06/13 11:44:19;;;;;;;3.78;0.88;;;;;;;;;;5034510;28;20531;-83
2022/06/13 11:47:03;;;;;;;4.63;1.08;;;;;;;;;;5050305;28;20052;-86
2022/06/13 11:49:48;;;;;;;2.00;0.60;;;;;;;;;;5035165;28;20057;-84
2022/06/13 11:56:04;;;;;;;3.47;0.65;;;;;;;;;;5046740;28;20053;-84
2022/06/13 11:59:01;;;;;;;3.17;0.70;;;;;;;;;;5036401;28;20056;-84
2022/06/13 12:01:38;;;;;;;1.88;0.52;;;;;;;;;;5048756;28;20660;-85
2022/06/13 12:04:11;;;;;;;1.23;0.43;;;;;;;;;;5033936;28;20464;-85
2022/06/13 12:07:19;;;;;;;5.50;1.58;;;;;;;;;;5034704;28;20053;-84
2022/06/13 12:09:52;;;;;;;2.88;0.60;;;;;;;;;;5036869;28;20049;-85
2022/06/13 12:13:23;;;;;;;4.03;0.80;;;;;;;;;;4991229;28;20050;-83
2022/06/13 12:16:37;;;;;;;2.08;0.60;;;;;;;;;;4975323;28;20057;-86
2022/06/13 12:19:52;;;;;;;3.90;0.93;;;;;;;;;;4994927;28;20141;-85
2022/06/13 12:23:06;;;;;;;2.58;0.68;;;;;;;;;;4993497;28;20063;-84
2022/06/13 12:25:39;;;;;;;4.80;0.60;;;;;;;;;;4978873;28;20511;-83
2022/06/13 12:28:16;;;;;;;3.30;1.02;;;;;;;;;;4993629;28;20142;-83
2022/06/13 12:30:55;;;;;;;4.63;0.77;;;;;;;;;;4993055;28;20073;-84
2022/06/13 12:34:22;;;;;;;4.57;0.70;;;;;;;;;;4992943;28;20624;-85
2022/06/13 12:38:05;;;;;;;3.53;0.50;;;;;;;;;;4943892;28;20054;-85
2022/06/13 12:40:36;;;;;;;1.30;0.50;;;;;;;;;;4943849;28;20058;-84
2022/06/13 12:43:19;;;;;;;3.05;0.95;;;;;;;;;;4957030;28;20077;-83
2022/06/13 12:46:19;;;;;;;2.33;0.70;;;;;;;;;;4986182;28;20092;-84
2022/06/13 12:52:18;;;;;;;4.35;0.55;;;;;;;;;;5007505;28;20053;-83
2022/06/13 12:56:02;;;;;;;2.83;0.60;;;;;;;;;;4999154;28;20054;-84
2022/06/13 12:59:27;;;;;;;;;;;;;;;;;;4907965;29;20128;-85
2022/06/13 13:02:19;;;;;;;3.88;0.70;;;;;;;;;;4891544;29;19963;-83
2022/06/13 13:05:05;;;;;;;2.63;0.60;;;;;;;;;;4911087;29;20112;-83
2022/06/13 13:08:01;;;;;;;5.05;0.73;;;;;;;;;;4920585;29;20375;-83
2022/06/13 13:10:33;;;;;;;;;;;;;;;;;;4926975;29;20055;-83
2022/06/13 13:13:23;;;;;;;3.25;0.90;;;;;;;;;;4931833;29;19960;-82
2022/06/13 13:15:58;;;;;;;0.88;0.43;;;;;;;;;;4922070;28;20069;-83
2022/06/13 13:18:33;;;;;;;2.63;0.90;;;;;;;;;;4939845;29;20051;-83
2022/06/13 13:21:22;;;;;;;3.50;0.98;;;;;;;;;;4944551;29;20063;-85
2022/06/13 13:23:53;;;;;;;3.30;0.93;;;;;;;;;;4941617;29;20099;-86
2022/06/13 13:26:53;;;;;;;3.53;0.60;;;;;;;;;;4934175;29;20044;-83
2022/06/13 13:29:48;;;;;;;3.67;0.80;;;;;;;;;;4946191;28;20058;-83
2022/06/13 13:32:52;;;;;;;3.30;0.77;;;;;;;;;;4959803;28;20074;-83
2022/06/13 13:35:30;;;;;;;3.22;0.90;;;;;;;;;;5036020;28;20079;-83
2022/06/13 13:38:10;;;;;;;1.40;0.40;;;;;;;;;;5050533;28;20057;-83
2022/06/13 13:40:46;;;;;;;1.45;0.50;;;;;;;;;;5052561;28;20067;-83
2022/06/13 13:43:24;;;;;;;2.47;0.60;;;;;;;;;;5037078;28;20473;-83
2022/06/13 13:46:18;;;;;;;3.35;0.50;;;;;;;;;;5048493;28;20578;-82
2022/06/13 13:48:56;;;;;;;3.88;0.70;;;;;;;;;;5047497;28;20156;-83
2022/06/13 13:51:25;;;;;;;2.97;0.65;;;;;;;;;;5052640;28;20056;-83
2022/06/13 13:54:21;;;;;;;2.75;1.00;;;;;;;;;;5051399;28;20511;-83
2022/06/13 13:57:15;;;;;;;6.45;1.13;;;;;;;;;;5051922;28;20060;-84
2022/06/13 14:03:47;;;;;;;7.07;1.10;;;;;;;;;;4972742;28;20556;-84
2022/06/13 14:07:48;;;;;;;1.77;0.60;;;;;;;;;;4942406;28;20150;-84
2022/06/13 14:10:18;;;;;;;4.45;0.40;;;;;;;;;;4940805;29;20059;-85
2022/06/13 14:13:17;;;;;;;1.50;0.40;;;;;;;;;;4942151;28;20086;-85
2022/06/13 14:15:48;;;;;;;2.78;0.55;;;;;;;;;;4918088;29;20065;-84
2022/06/13 14:18:32;;;;;;;2.80;0.57;;;;;;;;;;4939327;29;20155;-84
2022/06/13 14:21:01;;;;;;;4.97;0.88;;;;;;;;;;4944627;28;20059;-84
2022/06/13 14:23:42;;;;;;;4.47;0.82;;;;;;;;;;4939287;28;20086;-84
2022/06/13 14:26:48;;;;;;;2.83;0.95;;;;;;;;;;4940342;29;20047;-84
2022/06/13 14:29:25;;;;;;;3.35;0.40;;;;;;;;;;4925812;29;20059;-84
2022/06/13 14:32:01;;;;;;;3.00;0.73;;;;;;;;;;4926542;29;20059;-84
2022/06/13 14:38:23;;;;;;;3.17;0.80;;;;;;;;;;4963473;28;20075;-86
2022/06/13 14:42:46;;;;;;;2.60;0.70;;;;;;;;;;4951031;28;20664;-86
2022/06/13 14:46:14;;;;;;;3.70;0.73;;;;;;;;;;4877804;29;20060;-85
2022/06/13 14:50:26;;;;;;;2.22;0.43;;;;;;;;;;4865970;29;20049;-85
2022/06/13 14:54:03;;;;;;;3.85;0.70;;;;;;;;;;4846035;29;20536;-84
2022/06/13 14:57:13;;;;;;;2.28;0.70;;;;;;;;;;4846208;29;20074;-85
2022/06/13 15:00:23;;;;;;;4.03;0.80;;;;;;;;;;4828479;29;20677;-84
2022/06/13 15:02:54;;;;;;;5.07;1.00;;;;;;;;;;4820235;29;20201;-84
2022/06/13 15:05:49;;;;;;;3.47;0.70;;;;;;;;;;4793797;29;20157;-85
2022/06/13 15:08:39;;;;;;;3.38;0.85;;;;;;;;;;4784790;29;20055;-85
2022/06/13 15:11:14;;;;;;;1.83;0.82;;;;;;;;;;4792224;29;20240;-85
2022/06/13 15:13:51;;;;;;;4.20;0.98;;;;;;;;;;4805223;29;20145;-85
2022/06/13 15:16:28;;;;;;;5.47;0.88;;;;;;;;;;4802022;29;20062;-85
2022/06/13 15:19:04;;;;;;;6.95;1.10;;;;;;;;;;4870413;29;20729;-85
2022/06/13 15:21:38;;;;;;;3.38;1.10;;;;;;;;;;4895660;29;20097;-85
2022/06/13 15:24:43;;;;;;;4.80;0.82;;;;;;;;;;4921367;28;20145;-85
2022/06/13 15:27:11;;;;;;;7.72;1.25;;;;;;;;;;4949451;28;20055;-85
2022/06/13 15:29:41;;;;;;;4.88;1.30;;;;;;;;;;4935306;28;21040;-84
2022/06/13 15:32:38;;;;;;;3.28;0.90;;;;;;;;;;4931719;28;20059;-84
2022/06/13 15:35:13;;;;;;;4.85;1.00;;;;;;;;;;4950108;28;20055;-85
2022/06/13 15:37:45;;;;;;;5.15;0.90;;;;;;;;;;4947648;28;20180;-85
2022/06/13 15:40:21;;;;;;;5.50;1.02;;;;;;;;;;4949211;28;20051;-85
2022/06/13 15:43:22;;;;;;;3.95;1.20;;;;;;;;;;4960380;28;20589;-85
2022/06/13 15:45:54;;;;;;;6.68;1.10;;;;;;;;;;4986639;28;20097;-84
2022/06/13 15:48:24;;;;;;;6.95;1.55;;;;;;;;;;4989440;28;21125;-85
2022/06/13 15:51:13;;;;;;;8.85;1.77;;;;;;;;;;4987952;28;20181;-85
2022/06/13 15:53:41;;;;;;;3.67;0.90;;;;;;;;;;4988814;28;20065;-85
2022/06/13 15:57:09;;;;;;;3.85;1.00;;;;;;;;;;4988527;28;20069;-85
2022/06/13 16:01:15;;;;;;;4.30;1.10;;;;;;;;;;5007501;28;20133;-84
2022/06/13 16:05:02;;;;;;;4.00;0.80;;;;;;;;;;4958188;28;20061;-83
2022/06/13 16:07:32;;;;;;;2.90;0.77;;;;;;;;;;4945889;28;20074;-83
2022/06/13 16:10:07;;;;;;;4.47;0.93;;;;;;;;;;4944670;28;20054;-83
2022/06/13 16:12:42;;;;;;;7.18;1.15;;;;;;;;;;4940298;28;20061;-84
2022/06/13 16:15:18;;;;;;;4.15;0.80;;;;;;;;;;4942936;28;20961;-84
2022/06/13 16:17:48;;;;;;;3.05;1.10;;;;;;;;;;4960017;28;20997;-84
2022/06/13 16:20:24;;;;;;;8.00;1.60;;;;;;;;;;4957613;28;20050;-82
2022/06/13 16:23:11;;;;;;;3.40;1.10;;;;;;;;;;4980798;28;20049;-83
2022/06/13 16:26:06;;;;;;;3.05;0.98;;;;;;;;;;4974124;28;20047;-85
2022/06/13 16:29:19;;;;;;;2.55;0.85;;;;;;;;;;4966447;28;20055;-88
2022/06/13 16:38:42;;;;;;;4.33;0.80;;;;;;;;;;4816514;29;20033;-83
2022/06/13 16:41:33;;;;;;;3.03;1.23;;;;;;;;;;4840960;29;20081;-81
2022/06/13 16:44:04;;;;;;;3.70;0.93;;;;;;;;;;4831253;29;20081;-81
2022/06/13 16:46:46;;;;;;;5.72;1.10;;;;;;;;;;4844685;29;20064;-81
2022/06/13 16:49:34;;;;;;;3.85;0.85;;;;;;;;;;4845144;29;20056;-81
2022/06/13 16:52:18;;;;;;;2.85;0.90;;;;;;;;;;4853427;29;20058;-81
2022/06/13 16:55:19;;;;;;;2.70;0.60;;;;;;;;;;4857663;29;20066;-80
2022/06/13 16:57:49;;;;;;;;;;;;;;;;;;4865614;29;20121;-81
2022/06/13 17:00:20;;;;;;;4.18;0.98;;;;;;;;;;4862477;29;20044;-81
2022/06/13 17:02:56;;;;;;;5.15;1.13;;;;;;;;;;4846510;29;20062;-82
2022/06/13 17:05:31;;;;;;;3.17;0.90;;;;;;;;;;4852422;29;20063;-82
2022/06/13 17:08:08;;;;;;;5.88;1.40;;;;;;;;;;4849830;29;20058;-83
2022/06/13 17:10:53;;;;;;;2.72;0.98;;;;;;;;;;4850402;29;20065;-83
2022/06/13 17:13:54;;;;;;;2.95;1.00;;;;;;;;;;4933453;28;20405;-83
2022/06/13 17:16:47;;;;;;;5.43;1.15;;;;;;;;;;5014741;28;20069;-82
2022/06/13 17:19:24;;;;;;;5.18;0.95;;;;;;;;;;5014904;28;20057;-82
2022/06/13 17:21:57;;;;;;;5.10;1.52;;;;;;;;;;5014380;28;20395;-82
2022/06/13 17:24:25;;;;;;;7.50;1.45;;;;;;;;;;5054786;28;20080;-82
2022/06/13 17:32:51;;;;;;;3.08;0.93;;;;;;;;;;5038562;28;20071;-80
2022/06/13 17:35:23;;;;;;;3.58;1.13;;;;;;;;;;5056693;28;20048;-80
2022/06/13 17:37:52;;;;;;;3.15;0.90;;;;;;;;;;5057604;28;20128;-81
2022/06/13 17:40:28;;;;;;;3.97;0.90;;;;;;;;;;5040737;28;20068;-80
2022/06/13 17:42:58;;;;;;;3.08;0.82;;;;;;;;;;5052370;28;20059;-81
2022/06/13 17:45:32;;;;;;;3.03;0.90;;;;;;;;;;5054913;28;20052;-81
2022/06/13 17:48:06;;;;;;;9.07;1.88;;;;;;;;;;5055830;28;20127;-80
2022/06/13 17:50:59;;;;;;;4.65;1.15;;;;;;;;;;5057093;28;20056;-81
2022/06/13 17:53:27;;;;;;;2.03;0.80;;;;;;;;;;5059271;28;20533;-80
2022/06/13 17:55:55;;;;;;;3.05;1.00;;;;;;;;;;5057341;28;20064;-81
2022/06/13 17:58:23;;;;;;;6.10;1.40;;;;;;;;;;5056404;28;20048;-81
2022/06/13 18:00:53;;;;;;;4.90;1.35;;;;;;;;;;5055187;28;20564;-81
2022/06/13 18:03:33;;;;;;;4.03;0.90;;;;;;;;;;5052735;28;20056;-82
2022/06/13 18:06:03;;;;;;;3.70;1.00;;;;;;;;;;5043939;28;20056;-84
2022/06/13 18:08:40;;;;;;;3.38;0.90;;;;;;;;;;5053046;28;20048;-84
2022/06/13 18:11:07;;;;;;;3.53;1.10;;;;;;;;;;5036283;28;20118;-84
2022/06/13 18:13:41;;;;;;;5.07;1.10;;;;;;;;;;5053406;28;20309;-85
2022/06/13 18:16:10;;;;;;;6.43;1.40;;;;;;;;;;5053566;28;20049;-84
2022/06/13 18:18:43;;;;;;;5.75;1.30;;;;;;;;;;5036727;28;20147;-84
2022/06/13 18:21:13;;;;;;;5.32;1.35;;;;;;;;;;5038218;28;20440;-84
2022/06/13 18:23:43;;;;;;;6.53;1.42;;;;;;;;;;5021193;28;20076;-85
2022/06/13 18:26:20;;;;;;;7.65;1.33;;;;;;;;;;5052765;28;20059;-84
2022/06/13 18:28:50;;;;;;;7.57;1.25;;;;;;;;;;5046154;28;20049;-84
2022/06/13 18:31:24;;;;;;;5.82;1.42;;;;;;;;;;5037937;28;20053;-83
2022/06/13 18:34:05;;;;;;;5.88;2.00;;;;;;;;;;5053424;28;20456;-85
2022/06/13 18:36:33;;;;;;;6.47;1.27;;;;;;;;;;5036251;28;20056;-83
2022/06/13 18:39:29;;;;;;;4.85;1.58;;;;;;;;;;5053389;28;20052;-83
2022/06/13 18:42:09;;;;;;;3.58;1.10;;;;;;;;;;5020237;28;20513;-84
2022/06/13 18:45:31;;;;;;;5.40;1.17;;;;;;;;;;5049486;28;20060;-85
2022/06/13 18:48:46;;;;;;;5.97;1.50;;;;;;;;;;5032144;28;20046;-84
2022/06/13 18:51:30;;;;;;;3.42;1.35;;;;;;;;;;5035670;28;20160;-86
2022/06/13 18:58:42;;;;;;;4.15;1.38;;;;;;;;;;5033077;28;20056;-85
2022/06/13 19:02:29;;;;;;;5.50;1.35;;;;;;;;;;5027042;28;20065;-86
2022/06/13 19:05:49;;;;;;;4.80;1.27;;;;;;;;;;5036325;28;20049;-84
2022/06/13 19:08:31;;;;;;;4.05;1.48;;;;;;;;;;4997048;28;20509;-83
2022/06/13 19:11:07;;;;;;;2.85;1.23;;;;;;;;;;5022503;28;20049;-83
2022/06/13 19:13:40;;;;;;;5.70;1.30;;;;;;;;;;5038010;28;20095;-84
2022/06/13 19:16:31;;;;;;;5.60;1.23;;;;;;;;;;5021347;28;20080;-83
2022/06/13 19:19:33;;;;;;;7.13;1.52;;;;;;;;;;5030568;28;20060;-84
2022/06/13 19:22:57;;;;;;;5.80;1.63;;;;;;;;;;5033076;28;20049;-84
2022/06/13 19:25:36;;;;;;;7.28;1.60;;;;;;;;;;5019384;28;20057;-83
2022/06/13 19:28:07;;;;;;;7.65;1.40;;;;;;;;;;5019736;28;20133;-84
2022/06/13 19:30:43;;;;;;;7.35;1.40;;;;;;;;;;4998414;28;20230;-84
2022/06/13 19:33:15;;;;;;;7.47;1.55;;;;;;;;;;5004826;28;20549;-83
2022/06/13 19:35:51;;;;;;;6.68;1.30;;;;;;;;;;5011909;28;20450;-84
2022/06/13 19:38:27;;;;;;;4.63;1.30;;;;;;;;;;5033034;28;20130;-84
2022/06/13 19:40:57;;;;;;;7.18;1.52;;;;;;;;;;5052824;28;20358;-84
2022/06/13 19:44:00;;;;;;;6.00;1.55;;;;;;;;;;5052016;28;20049;-84
2022/06/13 19:46:30;;;;;;;6.43;1.30;;;;;;;;;;5046981;28;20163;-84
2022/06/13 19:49:22;;;;;;;6.00;1.60;;;;;;;;;;5042885;28;20072;-83
2022/06/13 19:51:53;;;;;;;8.23;1.88;;;;;;;;;;5060640;28;20075;-83
2022/06/13 19:54:23;;;;;;;9.23;1.70;;;;;;;;;;5047356;28;20483;-83
2022/06/13 19:56:59;;;;;;;5.72;1.83;;;;;;;;;;5042692;28;20080;-82
2022/06/13 19:59:30;;;;;;;6.50;1.58;;;;;;;;;;5026914;28;20124;-82
2022/06/13 20:02:25;;;;;;;5.75;1.38;;;;;;;;;;5046338;28;20199;-83
2022/06/13 20:05:06;;;;;;;6.25;1.88;;;;;;;;;;5026971;28;20099;-83
2022/06/13 20:10:38;;;;;;;8.55;1.63;;;;;;;;;;5029038;28;20783;-83
2022/06/13 20:13:39;;;;;;;4.80;1.48;;;;;;;;;;5046230;28;20070;-83
2022/06/13 20:16:21;;;;;;;5.82;2.17;;;;;;;;;;5032976;28;20489;-82
2022/06/13 20:19:07;;;;;;;6.30;1.23;;;;;;;;;;5016474;28;20072;-82
2022/06/13 20:21:36;;;;;;;6.70;1.20;;;;;;;;;;5045968;28;20099;-83
2022/06/13 20:24:20;;;;;;;9.05;1.40;;;;;;;;;;5034392;28;20057;-83
2022/06/13 20:26:49;;;;;;;7.65;1.58;;;;;;;;;;5025174;28;20056;-83
2022/06/13 20:29:24;;;;;;;6.22;1.33;;;;;;;;;;5044727;28;20044;-83
2022/06/13 20:31:55;;;;;;;8.18;1.30;;;;;;;;;;5010485;28;20060;-83
2022/06/13 20:34:48;;;;;;;5.45;1.27;;;;;;;;;;5025912;28;20048;-83
2022/06/13 20:37:28;;;;;;;5.82;1.40;;;;;;;;;;5037951;28;20597;-84
2022/06/13 20:40:13;;;;;;;6.50;1.38;;;;;;;;;;5052251;28;20040;-84
2022/06/13 20:42:56;;;;;;;8.95;1.42;;;;;;;;;;5050114;28;20049;-83
2022/06/13 20:45:30;;;;;;;6.43;1.10;;;;;;;;;;5048091;28;20063;-84
2022/06/13 20:48:10;;;;;;;4.20;1.10;;;;;;;;;;5050657;28;20059;-84
2022/06/13 20:50:47;;;;;;;10.63;1.30;;;;;;;;;;5058634;28;20099;-82
2022/06/13 20:53:16;;;;;;;4.00;1.08;;;;;;;;;;5055777;28;20064;-82
2022/06/13 20:55:45;;;;;;;5.75;1.40;;;;;;;;;;5038330;28;20215;-82
2022/06/13 20:58:20;;;;;;;6.60;1.50;;;;;;;;;;5066975;28;20048;-82
2022/06/13 21:05:51;;;;;;;6.55;1.10;;;;;;;;;;5056768;28;20091;-85
2022/06/13 21:42:14;;;;;;;3.63;1.90;;;;;;;;;;5034919;28;20115;-86
2022/06/13 21:46:56;;;;;;;5.38;1.25;;;;;;;;;;4917826;29;20110;-88
2022/06/13 22:55:13;;;;;;;4.05;1.33;;;;;;;;;;4995123;28;20045;-87
2022/06/13 22:59:51;;;;;;;3.17;1.30;;;;;;;;;;4939573;28;20043;-87
2022/06/13 23:03:44;;;;;;;7.15;1.60;;;;;;;;;;4835218;29;20058;-85
2022/06/13 23:09:47;;;;;;;5.63;1.60;;;;;;;;;;4815533;29;19928;-85
2022/06/13 23:13:06;;;;;;;4.38;1.40;;;;;;;;;;4831960;29;20058;-87
2022/06/13 23:17:13;;;;;;;8.98;1.70;;;;;;;;;;4871593;29;20535;-86
2022/06/13 23:21:43;;;;;;;4.85;1.52;;;;;;;;;;4878908;29;20171;-85
